Winchester, ID

6:13 PM PDT on May 06, 2015 (GMT -0700)
Lewiston-Nez Perce County | | Change Station
CLOSE
Current Station
Airport
Location: Lewiston,
Elevation: 1437 ft
Nearby Weather Stations

Elev 1437 ft 46.37 °N, 117.02 °W | Updated 17 minutes ago

Overcast
Overcast
65 °F
Feels Like 65 °F
N
10
Wind Variable Wind from WNW
Gusts 21 mph

Today
High -- | Low -- °F
--% Chance of Precip.
Yesterday
High -- | Low -- °F
Precip. -- in
5:25 AM 8:01 PM
Waning Gibbous, 91% visible
Pressure 29.87 in
Visibility 10.0 miles
Clouds Mostly Cloudy 8500 ft
Mostly Cloudy 10000 ft
Dew Point 28 °F
Humidity 25%
Rainfall 0.00 in
Snow Depth Not available.
UV 1 out of 12
Pollen 9.60 out of 12
Air Quality Not available.
Flu Activity Sporadic
METAR KLWS 070056Z 29009G18KT 10SM BKN085 BKN100 18/M02 A2987 RMK AO2 SLP114 T01831022

More Conditions Fewer Conditions

Pressure 29.87 in
Visibility 10.0 miles
Clouds Mostly Cloudy 8500 ft
Mostly Cloudy 10000 ft
Dew Point 28 °F
Humidity 25%
Rainfall 0.00 in
Snow Depth Not available.
UV 1 out of 12
Pollen 9.60 out of 12
Air Quality Not available.
Flu Activity Sporadic
METAR KLWS 070056Z 29009G18KT 10SM BKN085 BKN100 18/M02 A2987 RMK AO2 SLP114 T01831022

More Conditions Fewer Conditions

10-Day Weather Forecast

Almanac

Astronomy

May. 06, 2015 Rise Set
Actual Time
Civil Twilight
Nautical Twilight
Astronomical Twilight
Moon
Length of Visible Light
Length of Day
Tomorrow will be .
, % of the Moon is Illuminated

Today's Extremes

State Highs State Lows

Community

WunderPhotos

Upload Photos

1,819,056 photos uploaded!

WunderBlogs® & News

Nearby

Air Quality

  Air Quality AQ Index Pollutant
Not available.

Snow Depth

Station Depth Elevation

Earthquake Activity

City Distance Mag. Time & Date
Minimum magnitude displayed is 2.5.

Coastal Water Temperatures

Place Temperature

Stations

Nearby Weather Stations

Station Location Temp. Windchill Dew Point Humidity Wind Precip. Elev Updated Type